Terminal Aerodrome Forecast
Issued by NWS

Home | Current Version | Previous Version | Graphics & Text | Print | Product List | Glossary On
Versions: 1 2 3 4 5 6 7 8 9 10 11 12 13 14 15 16 17 18 19
000
FTUS43 KGRB 190600 AAA
TAFAUW
TAF AMD
KAUW 190643Z 1907/2006 12004KT 2SM BR OVC003
      TEMPO 1908/1912 1SM BR
     FM191300 19010G16KT P6SM SCT100 BKN250 WS015/22030KT
     FM191600 18014G22KT P6SM SCT100 BKN200
     FM192200 19011KT P6SM BKN100 BKN250
     FM200200 18006KT P6SM VCSH BKN070=

USA.gov is the U.S. government's official web portal to all federal, state and local government web resources and services.